createdAt,value
2018-11-20T00:02:20.472Z,2.17
2018-11-20T00:05:50.120Z,2.03
2018-11-20T00:08:51.146Z,2.30
2018-11-20T00:12:02.827Z,2.30
2018-11-20T00:15:00.118Z,2.43
2018-11-20T00:18:15.839Z,2.47
2018-11-20T00:21:08.422Z,2.60
2018-11-20T00:24:13.683Z,2.67
2018-11-20T00:27:22.923Z,2.30
2018-11-20T00:30:23.148Z,2.30
2018-11-20T00:33:21.172Z,2.50
2018-11-20T00:36:38.661Z,3.53
2018-11-20T00:39:48.009Z,3.70
2018-11-20T00:43:03.014Z,3.63
2018-11-20T00:46:27.508Z,3.80
2018-11-20T00:49:32.655Z,3.70
2018-11-20T00:52:47.869Z,2.77
2018-11-20T00:56:18.179Z,2.63
2018-11-20T00:59:24.481Z,2.30
2018-11-20T01:02:29.191Z,2.23
2018-11-20T01:05:41.360Z,2.13
2018-11-20T01:08:46.601Z,2.40
2018-11-20T01:11:53.021Z,2.20
2018-11-20T01:14:53.511Z,2.10
2018-11-20T01:18:11.506Z,2.37
2018-11-20T01:21:23.367Z,2.30
2018-11-20T01:24:29.649Z,2.37
2018-11-20T01:27:36.064Z,2.03
2018-11-20T01:30:45.100Z,1.87
2018-11-20T01:34:11.416Z,2.50
2018-11-20T01:37:29.821Z,2.40
2018-11-20T01:40:33.029Z,2.30
2018-11-20T01:43:30.400Z,2.20
2018-11-20T01:46:45.196Z,1.90
2018-11-20T01:50:10.028Z,2.23
2018-11-20T01:53:15.968Z,2.40
2018-11-20T01:56:25.088Z,2.47
2018-11-20T01:59:42.914Z,2.50
2018-11-20T02:03:01.012Z,2.50
2018-11-20T02:06:07.282Z,2.60
2018-11-20T02:09:16.145Z,2.73
2018-11-20T02:12:28.263Z,2.70
2018-11-20T02:15:33.117Z,2.77
2018-11-20T02:18:38.061Z,2.67
2018-11-20T02:21:47.389Z,2.30
2018-11-20T02:24:52.336Z,2.60
2018-11-20T02:27:55.395Z,2.13
2018-11-20T02:31:04.097Z,1.93
2018-11-20T02:34:21.751Z,2.10
2018-11-20T02:37:30.899Z,2.10
2018-11-20T02:40:48.192Z,1.80
2018-11-20T02:43:51.707Z,2.50
2018-11-20T02:47:00.272Z,2.10
2018-11-20T02:50:12.098Z,2.17
2018-11-20T02:53:17.371Z,2.17
2018-11-20T02:56:23.878Z,2.20
2018-11-20T02:59:37.757Z,2.10
2018-11-20T03:02:45.051Z,2.50
2018-11-20T03:06:01.444Z,2.03
2018-11-20T03:09:10.092Z,2.10
2018-11-20T03:12:16.522Z,2.30
2018-11-20T03:15:31.108Z,2.10
2018-11-20T03:18:35.877Z,2.07
2018-11-20T03:21:49.587Z,2.43
2018-11-20T03:25:14.625Z,2.30
2018-11-20T03:28:19.474Z,2.67
2018-11-20T03:31:24.866Z,2.40
2018-11-20T03:34:37.239Z,2.40
2018-11-20T03:37:46.246Z,2.33
2018-11-20T03:40:58.100Z,2.13
2018-11-20T03:44:03.231Z,2.10
2018-11-20T03:46:58.646Z,2.10
2018-11-20T03:50:04.703Z,2.00
2018-11-20T03:53:13.947Z,2.00
2018-11-20T03:56:15.646Z,2.10
2018-11-20T03:59:32.742Z,2.00
2018-11-20T04:02:41.891Z,2.10
2018-11-20T04:05:46.692Z,2.40
2018-11-20T04:09:01.594Z,2.30
2018-11-20T04:11:55.045Z,2.23
2018-11-20T04:14:59.880Z,2.20
2018-11-20T04:18:08.854Z,2.40
2018-11-20T04:21:19.463Z,2.40
2018-11-20T04:24:40.702Z,2.30
2018-11-20T04:28:01.768Z,2.40
2018-11-20T04:31:12.815Z,2.57
2018-11-20T04:34:21.888Z,2.23
2018-11-20T04:37:28.338Z,2.40
2018-11-20T04:40:38.056Z,2.30
2018-11-20T04:43:41.383Z,3.00
2018-11-20T04:47:00.097Z,2.73
2018-11-20T04:50:09.231Z,2.63
2018-11-20T04:53:13.046Z,2.50
2018-11-20T04:56:17.712Z,2.30
2018-11-20T04:59:27.220Z,2.50
2018-11-20T05:02:32.295Z,2.90
2018-11-20T05:05:48.959Z,2.77
2018-11-20T05:08:51.965Z,3.07
2018-11-20T05:12:00.732Z,2.90
2018-11-20T05:15:15.548Z,3.17
2018-11-20T05:18:15.182Z,2.83
2018-11-20T05:21:20.535Z,3.00
2018-11-20T05:24:23.493Z,3.20
2018-11-20T05:27:41.568Z,2.70
2018-11-20T05:31:01.425Z,3.33
2018-11-20T05:34:15.487Z,3.07
2018-11-20T05:40:44.833Z,3.13
2018-11-20T05:43:51.429Z,3.50
2018-11-20T05:47:07.404Z,2.90
2018-11-20T05:50:26.543Z,3.20
2018-11-20T05:53:38.199Z,3.60
2018-11-20T05:56:41.261Z,3.47
2018-11-20T05:59:42.643Z,3.30
2018-11-20T06:02:47.376Z,3.33
2018-11-20T06:05:47.514Z,3.97
2018-11-20T06:09:05.331Z,3.93
2018-11-20T06:12:10.234Z,3.87
2018-11-20T06:15:20.908Z,4.10
2018-11-20T06:18:39.016Z,4.50
2018-11-20T06:21:43.576Z,3.73
2018-11-20T06:24:52.866Z,4.37
2018-11-20T06:28:04.700Z,4.10
2018-11-20T06:31:11.976Z,4.10
2018-11-20T06:34:18.710Z,4.00
2018-11-20T06:37:42.810Z,3.77
2018-11-20T06:40:49.645Z,3.80
2018-11-20T06:43:57.952Z,4.63
2018-11-20T06:47:09.539Z,3.73
2018-11-20T06:50:14.251Z,3.87
2018-11-20T06:53:32.461Z,4.13
2018-11-20T06:56:55.691Z,3.80
2018-11-20T07:00:02.004Z,4.07
2018-11-20T07:03:11.413Z,3.63
2018-11-20T07:06:32.242Z,3.97
2018-11-20T07:09:31.708Z,3.23
2018-11-20T07:12:47.914Z,3.67
2018-11-20T07:16:04.877Z,3.13
2018-11-20T07:19:27.239Z,3.97
2018-11-20T07:22:55.842Z,3.60
2018-11-20T07:26:02.628Z,3.07
2018-11-20T07:29:12.031Z,3.13
2018-11-20T07:32:27.120Z,2.87
2018-11-20T07:35:35.872Z,3.37
2018-11-20T07:38:41.245Z,2.53
2018-11-20T07:41:40.101Z,3.10
2018-11-20T07:44:54.976Z,3.10
2018-11-20T07:47:57.227Z,2.80
2018-11-20T07:51:21.601Z,2.97
2018-11-20T07:54:36.302Z,3.77
2018-11-20T07:57:44.289Z,3.70
2018-11-20T08:00:48.412Z,3.37
2018-11-20T08:03:56.361Z,3.37
2018-11-20T08:07:12.289Z,3.00
2018-11-20T08:10:21.639Z,3.13
2018-11-20T08:13:36.576Z,2.57
2018-11-20T08:16:48.704Z,6.53
2018-11-20T08:19:53.784Z,3.43
2018-11-20T08:23:05.865Z,3.77
2018-11-20T08:26:02.674Z,3.20
2018-11-20T08:28:59.235Z,3.10
2018-11-20T08:32:04.287Z,3.37
2018-11-20T08:35:16.662Z,3.60
2018-11-20T08:38:24.766Z,3.57
2018-11-20T08:41:26.589Z,3.20
2018-11-20T08:44:50.906Z,2.63
2018-11-20T08:47:57.865Z,2.70
2018-11-20T08:51:09.871Z,3.30
2018-11-20T08:54:16.052Z,3.57
2018-11-20T08:57:20.738Z,3.17
2018-11-20T09:00:33.222Z,3.00
2018-11-20T09:03:36.315Z,3.67
2018-11-20T09:06:42.800Z,3.00
2018-11-20T09:09:47.375Z,3.40
2018-11-20T09:12:52.049Z,3.80
2018-11-20T09:15:58.346Z,3.57
2018-11-20T09:19:03.062Z,3.40
2018-11-20T09:22:18.288Z,3.30
2018-11-20T09:25:23.197Z,3.80
2018-11-20T09:28:27.914Z,3.40
2018-11-20T09:31:39.897Z,2.90
2018-11-20T09:34:45.899Z,3.20
2018-11-20T09:38:09.687Z,3.90
2018-11-20T09:41:16.263Z,2.97
2018-11-20T09:44:37.002Z,3.27
2018-11-20T09:47:40.655Z,3.20
2018-11-20T09:50:49.031Z,3.30
2018-11-20T09:53:53.654Z,2.80
2018-11-20T09:56:56.213Z,2.73
2018-11-20T10:00:05.019Z,2.60
2018-11-20T10:03:11.887Z,2.87
2018-11-20T10:06:14.716Z,2.50
2018-11-20T10:09:20.023Z,3.03
2018-11-20T10:12:27.736Z,3.27
2018-11-20T10:15:38.159Z,3.33
2018-11-20T10:18:42.905Z,3.27
2018-11-20T10:21:58.436Z,3.30
2018-11-20T10:25:17.303Z,4.53
2018-11-20T10:28:33.300Z,5.10
2018-11-20T10:31:38.043Z,3.20
2018-11-20T10:34:43.324Z,2.77
2018-11-20T10:37:52.346Z,2.50
2018-11-20T10:40:55.212Z,2.80
2018-11-20T10:44:13.833Z,3.20
2018-11-20T10:47:18.733Z,2.77
2018-11-20T10:50:27.949Z,2.87
2018-11-20T10:53:42.367Z,1.73
2018-11-20T10:56:48.615Z,2.47
2018-11-20T10:59:50.720Z,1.93
2018-11-20T11:02:55.557Z,1.60
2018-11-20T11:06:00.958Z,1.87
2018-11-20T11:09:06.350Z,1.87
2018-11-20T11:12:28.574Z,1.57
2018-11-20T11:15:33.373Z,1.67
2018-11-20T11:18:48.975Z,1.30
2018-11-20T11:21:53.942Z,1.80
2018-11-20T11:25:02.632Z,1.50
2018-11-20T11:28:23.893Z,1.27
2018-11-20T11:31:45.417Z,1.80
2018-11-20T11:35:00.308Z,1.40
2018-11-20T11:38:18.709Z,4.30
2018-11-20T11:41:27.737Z,1.80
2018-11-20T11:44:34.522Z,1.60
2018-11-20T11:47:43.973Z,1.27
2018-11-20T11:50:52.419Z,0.80
2018-11-20T11:54:14.070Z,0.90
2018-11-20T11:57:22.583Z,1.10
2018-11-20T12:00:44.238Z,1.13
2018-11-20T12:03:48.338Z,0.77
2018-11-20T12:06:54.064Z,0.80
2018-11-20T12:10:01.466Z,0.80
2018-11-20T12:13:05.534Z,0.70
2018-11-20T12:16:18.688Z,0.90
2018-11-20T12:19:37.362Z,1.13
2018-11-20T12:22:41.610Z,0.80
2018-11-20T12:25:54.093Z,0.70
2018-11-20T12:29:06.127Z,0.80
2018-11-20T12:32:11.064Z,0.90
2018-11-20T12:35:16.028Z,1.27
2018-11-20T12:38:20.928Z,0.77
2018-11-20T12:41:28.673Z,0.87
2018-11-20T12:44:31.961Z,0.90
2018-11-20T12:47:46.704Z,1.00
2018-11-20T12:50:51.549Z,0.70
2018-11-20T12:54:00.304Z,0.80
2018-11-20T12:57:13.936Z,2.67
2018-11-20T13:00:27.057Z,1.30
2018-11-20T13:03:39.261Z,0.93
2018-11-20T13:06:57.543Z,0.93
2018-11-20T13:10:06.086Z,1.00
2018-11-20T13:13:26.918Z,1.20
2018-11-20T13:16:21.060Z,1.07
2018-11-20T13:19:27.367Z,1.20
2018-11-20T13:22:33.513Z,0.70
2018-11-20T13:25:37.573Z,0.93
2018-11-20T13:28:37.301Z,1.00
2018-11-20T13:31:41.540Z,1.10
2018-11-20T13:34:47.841Z,1.23
2018-11-20T13:37:45.776Z,1.10
2018-11-20T13:41:10.800Z,1.50
2018-11-20T13:44:06.939Z,1.20
2018-11-20T13:47:11.876Z,0.90
2018-11-20T13:50:29.516Z,0.93
2018-11-20T13:53:39.182Z,1.10
2018-11-20T13:56:43.410Z,1.13
2018-11-20T14:00:01.552Z,1.10
2018-11-20T14:03:13.155Z,1.00
2018-11-20T14:06:24.903Z,1.10
2018-11-20T14:09:31.464Z,1.07
2018-11-20T14:12:46.279Z,0.83
2018-11-20T14:16:07.520Z,1.10
2018-11-20T14:19:22.206Z,0.67
2018-11-20T14:22:34.739Z,0.67
2018-11-20T14:25:41.476Z,0.80
2018-11-20T14:28:41.003Z,0.70
2018-11-20T14:31:49.729Z,0.70
2018-11-20T14:34:58.924Z,0.60
2018-11-20T14:38:05.338Z,0.70
2018-11-20T14:41:10.106Z,1.10
2018-11-20T14:44:15.001Z,0.90
2018-11-20T14:47:21.588Z,0.80
2018-11-20T14:50:26.390Z,0.90
2018-11-20T14:53:38.114Z,0.80
2018-11-20T14:56:42.134Z,0.60
2018-11-20T14:59:54.940Z,0.93
2018-11-20T15:03:01.349Z,1.00
2018-11-20T15:06:06.213Z,0.90
2018-11-20T15:09:15.770Z,1.00
2018-11-20T15:12:34.074Z,0.80
2018-11-20T15:15:41.859Z,0.97
2018-11-20T15:18:48.302Z,0.80
2018-11-20T15:21:54.664Z,1.13
2018-11-20T15:24:50.945Z,0.80
2018-11-20T15:27:56.353Z,0.80
2018-11-20T15:31:02.352Z,1.23
2018-11-20T15:34:02.511Z,1.20
2018-11-20T15:37:06.088Z,1.20
2018-11-20T15:40:12.470Z,1.23
2018-11-20T15:43:39.459Z,1.07
2018-11-20T15:46:41.937Z,1.20
2018-11-20T15:50:03.491Z,1.17
2018-11-20T15:53:21.418Z,1.10
2018-11-20T15:56:26.231Z,1.03
2018-11-20T16:03:08.459Z,1.43
2018-11-20T16:06:20.663Z,1.00
2018-11-20T16:09:26.884Z,0.80
2018-11-20T16:12:31.489Z,0.77
2018-11-20T16:15:56.571Z,0.80
2018-11-20T16:19:05.618Z,0.97
2018-11-20T16:22:11.849Z,0.80
2018-11-20T16:25:36.385Z,1.20
2018-11-20T16:28:42.533Z,1.20
2018-11-20T16:31:57.917Z,0.90
2018-11-20T16:34:55.989Z,0.90
2018-11-20T16:38:11.627Z,1.00
2018-11-20T16:41:17.888Z,0.97
2018-11-20T16:44:29.074Z,1.00
2018-11-20T16:47:32.641Z,1.00
2018-11-20T16:50:39.142Z,1.00
2018-11-20T16:53:57.459Z,0.90
2018-11-20T16:57:21.955Z,0.90
2018-11-20T17:00:46.661Z,0.73
2018-11-20T17:03:58.755Z,0.83
2018-11-20T17:07:13.026Z,1.00
2018-11-20T17:10:22.125Z,0.93
2018-11-20T17:13:24.055Z,0.83
2018-11-20T17:16:34.013Z,0.77
2018-11-20T17:19:43.585Z,0.80
2018-11-20T17:22:56.111Z,0.80
2018-11-20T17:26:01.472Z,0.80
2018-11-20T17:29:13.581Z,1.10
2018-11-20T17:32:22.107Z,1.33
2018-11-20T17:35:26.949Z,2.77
2018-11-20T17:38:31.590Z,1.30
2018-11-20T17:41:36.516Z,1.20
2018-11-20T17:44:58.243Z,1.43
2018-11-20T17:48:22.644Z,1.47
2018-11-20T17:51:26.125Z,1.60
2018-11-20T17:54:34.998Z,1.47
2018-11-20T17:57:39.983Z,1.20
2018-11-20T18:01:01.359Z,0.97
2018-11-20T18:04:09.994Z,0.90
2018-11-20T18:07:22.052Z,1.30
2018-11-20T18:10:23.671Z,1.17
2018-11-20T18:13:30.148Z,1.30
2018-11-20T18:16:41.007Z,1.50
2018-11-20T18:19:44.593Z,1.53
2018-11-20T18:26:09.824Z,1.57
2018-11-20T18:29:22.626Z,1.50
2018-11-20T18:32:27.866Z,1.60
2018-11-20T18:35:33.306Z,1.80
2018-11-20T18:38:31.733Z,1.83
2018-11-20T18:41:48.776Z,1.70
2018-11-20T18:45:06.335Z,1.70
2018-11-20T18:48:10.434Z,1.80
2018-11-20T18:51:35.172Z,1.87
2018-11-20T18:54:38.807Z,2.10
2018-11-20T18:57:55.116Z,2.00
2018-11-20T19:01:08.569Z,2.40
2018-11-20T19:04:30.833Z,2.10
2018-11-20T19:07:55.961Z,1.90
2018-11-20T19:11:30.465Z,2.27
2018-11-20T19:14:52.024Z,2.30
2018-11-20T19:17:57.334Z,2.30
2018-11-20T19:24:52.720Z,2.70
2018-11-20T19:28:14.445Z,2.37
2018-11-20T19:31:53.028Z,2.20
2018-11-20T19:35:17.412Z,2.73
2018-11-20T19:38:48.373Z,2.17
2018-11-20T19:42:07.028Z,10.57
2018-11-20T19:45:30.948Z,2.40
2018-11-20T19:48:36.356Z,2.30
2018-11-20T19:51:47.950Z,2.50
2018-11-20T19:55:12.458Z,2.10
2018-11-20T19:58:17.661Z,2.40
2018-11-20T20:01:24.623Z,1.80
2018-11-20T20:04:29.150Z,2.10
2018-11-20T20:08:06.078Z,2.10
2018-11-20T20:10:44.374Z,2.20
2018-11-20T20:13:53.501Z,1.80
2018-11-20T20:17:02.671Z,2.30
2018-11-20T20:20:03.756Z,2.53
2018-11-20T20:23:57.576Z,2.07
2018-11-20T20:26:32.492Z,2.30
2018-11-20T20:29:40.415Z,2.00
2018-11-20T20:36:52.442Z,2.10
2018-11-20T20:43:19.025Z,2.63
2018-11-20T20:46:28.988Z,2.43
2018-11-20T20:49:36.782Z,2.93
2018-11-20T20:52:45.609Z,2.73
2018-11-20T20:55:49.631Z,2.50
2018-11-20T20:59:03.622Z,2.73
2018-11-20T21:02:22.631Z,3.00
2018-11-20T21:05:30.148Z,3.17
2018-11-20T21:08:39.716Z,2.70
2018-11-20T21:11:50.935Z,2.67
2018-11-20T21:18:39.582Z,2.87
2018-11-20T21:24:56.828Z,2.77
2018-11-20T21:27:54.803Z,2.50
2018-11-20T21:31:14.853Z,2.70
2018-11-20T21:34:20.472Z,2.60
2018-11-20T21:37:45.503Z,2.70
2018-11-20T21:40:50.216Z,2.87
2018-11-20T21:44:04.816Z,2.80
2018-11-20T21:47:11.005Z,2.57
2018-11-20T21:50:20.864Z,2.73
2018-11-20T21:53:45.564Z,2.57
2018-11-20T21:56:50.339Z,2.77
2018-11-20T22:00:00.584Z,2.60
2018-11-20T22:03:22.379Z,2.73
2018-11-20T22:16:29.912Z,2.97
2018-11-20T22:19:34.313Z,3.00
2018-11-20T22:22:40.385Z,3.20
2018-11-20T22:25:58.809Z,3.10
2018-11-20T22:29:07.744Z,2.80
2018-11-20T22:32:12.724Z,2.80
2018-11-20T22:35:23.080Z,2.80
2018-11-20T22:38:16.552Z,3.00
2018-11-20T22:41:41.134Z,2.90
2018-11-20T22:44:47.622Z,2.67
2018-11-20T22:48:17.388Z,3.00
2018-11-20T23:01:29.910Z,3.47
2018-11-20T23:04:34.741Z,3.00
2018-11-20T23:07:55.842Z,3.33
2018-11-20T23:10:41.646Z,2.37
2018-11-20T23:13:29.051Z,2.80
2018-11-20T23:16:16.447Z,2.80
2018-11-20T23:19:04.111Z,2.90
2018-11-20T23:21:53.337Z,2.40
2018-11-20T23:24:39.374Z,2.73
2018-11-20T23:27:26.869Z,2.60
2018-11-20T23:30:15.579Z,2.50
2018-11-20T23:33:04.897Z,2.83
2018-11-20T23:35:50.710Z,2.30
2018-11-20T23:38:38.339Z,1.93
2018-11-20T23:48:28.827Z,2.20
2018-11-20T23:51:19.441Z,2.40
2018-11-20T23:54:15.823Z,2.03
2018-11-20T23:57:09.785Z,2.10
2018-11-20T23:59:57.372Z,1.90
